createdAt,value
2023-04-23T00:02:13.577Z,18.90
2023-04-23T00:12:20.325Z,19.30
2023-04-23T00:22:27.215Z,20.50
2023-04-23T00:32:33.999Z,20.10
2023-04-23T00:42:41.128Z,20.10
2023-04-23T00:52:47.741Z,20.50
2023-04-23T01:02:55.146Z,21.50
2023-04-23T01:13:01.848Z,21.20
2023-04-23T01:23:08.552Z,21.50
2023-04-23T01:33:15.604Z,21.70
2023-04-23T01:43:22.629Z,22.70
2023-04-23T01:53:29.263Z,21.60
2023-04-23T02:03:36.193Z,22.40
2023-04-23T02:13:42.815Z,22.50
2023-04-23T02:23:49.332Z,22.10
2023-04-23T02:33:55.784Z,23.00
2023-04-23T02:44:02.300Z,23.70
2023-04-23T02:54:08.951Z,24.20
2023-04-23T03:04:15.561Z,23.80
2023-04-23T03:14:22.145Z,25.80
2023-04-23T03:24:28.711Z,27.20
2023-04-23T03:34:35.265Z,29.50
2023-04-23T03:44:41.939Z,32.20
2023-04-23T03:54:48.602Z,32.20
2023-04-23T04:04:56.539Z,33.70
2023-04-23T04:15:04.748Z,34.30
2023-04-23T04:25:10.332Z,33.10
2023-04-23T04:35:16.955Z,31.60
2023-04-23T04:45:23.640Z,29.30
2023-04-23T04:55:30.489Z,28.10
2023-04-23T05:05:37.401Z,26.40
2023-04-23T05:15:44.002Z,25.00
2023-04-23T05:25:51.442Z,25.70
2023-04-23T05:35:59.550Z,23.30
2023-04-23T05:46:08.569Z,22.90
2023-04-23T05:56:15.495Z,20.70
2023-04-23T06:06:22.094Z,20.20
2023-04-23T06:16:28.636Z,20.00
2023-04-23T06:26:35.412Z,18.00
2023-04-23T06:36:42.065Z,19.20
2023-04-23T06:46:48.558Z,19.40
2023-04-23T06:56:55.215Z,16.30
2023-04-23T07:07:01.753Z,15.40
2023-04-23T07:17:08.437Z,12.60
2023-04-23T07:27:14.950Z,13.10
2023-04-23T07:37:23.075Z,12.10
2023-04-23T07:47:29.757Z,11.00
2023-04-23T07:57:36.281Z,8.60
2023-04-23T08:07:42.759Z,8.60
2023-04-23T08:17:49.333Z,6.70
2023-04-23T08:27:55.838Z,5.80
2023-04-23T08:38:03.080Z,6.60
2023-04-23T08:48:11.427Z,5.40
2023-04-23T08:58:18.229Z,4.80
2023-04-23T09:08:24.988Z,4.80
2023-04-23T09:18:32.245Z,4.60
2023-04-23T09:28:39.458Z,5.20
2023-04-23T09:38:52.936Z,4.70
2023-04-23T09:49:05.945Z,5.50
2023-04-23T09:59:46.797Z,5.00
2023-04-23T10:10:03.963Z,5.00
2023-04-23T10:20:18.002Z,4.90
2023-04-23T10:30:31.020Z,5.10
2023-04-23T10:40:45.958Z,5.20
2023-04-23T10:51:35.387Z,5.40
2023-04-23T11:01:40.055Z,5.20
2023-04-23T11:11:53.005Z,5.00
2023-04-23T11:22:14.021Z,5.70
2023-04-23T11:32:27.116Z,5.30
2023-04-23T11:42:47.035Z,5.60
2023-04-23T11:53:01.016Z,5.40
2023-04-23T12:03:14.204Z,4.80
2023-04-23T12:13:30.045Z,4.90
2023-04-23T12:23:44.059Z,4.60
2023-04-23T12:34:06.099Z,5.70
2023-04-23T12:44:26.053Z,4.90
2023-04-23T12:54:41.105Z,4.90
2023-04-23T13:04:54.059Z,5.70
2023-04-23T13:15:07.135Z,4.70
2023-04-23T13:25:20.096Z,4.60
2023-04-23T13:35:33.142Z,4.60
2023-04-23T13:45:53.147Z,4.90
2023-04-23T13:56:07.142Z,4.00
2023-04-23T14:06:20.127Z,4.80
2023-04-23T14:16:33.178Z,5.60
2023-04-23T14:26:49.691Z,4.50
2023-04-23T14:37:03.231Z,4.50
2023-04-23T14:47:18.201Z,4.40
2023-04-23T14:57:31.260Z,4.50
2023-04-23T15:07:44.183Z,5.00
2023-04-23T15:17:57.238Z,5.90
2023-04-23T15:28:10.189Z,5.60
2023-04-23T15:38:26.268Z,5.10
2023-04-23T15:48:39.223Z,5.30
2023-04-23T15:58:52.236Z,5.10
2023-04-23T16:09:05.251Z,5.10
2023-04-23T16:19:18.604Z,5.20
2023-04-23T16:29:31.250Z,6.60
2023-04-23T16:39:44.416Z,5.20
2023-04-23T16:49:57.283Z,5.70
2023-04-23T17:00:13.315Z,6.50
2023-04-23T17:10:27.295Z,5.80
2023-04-23T17:20:43.335Z,7.30
2023-04-23T17:30:59.313Z,4.70
2023-04-23T17:41:12.333Z,6.10
2023-04-23T17:51:26.292Z,5.90
2023-04-23T18:01:39.532Z,6.50
2023-04-23T18:11:52.331Z,6.20
2023-04-23T18:22:12.362Z,7.00
2023-04-23T18:32:34.068Z,6.60
2023-04-23T18:42:47.377Z,7.10
2023-04-23T18:53:00.349Z,8.30
2023-04-23T19:03:24.252Z,8.20
2023-04-23T19:13:39.393Z,10.40
2023-04-23T19:23:52.417Z,8.90
